createdAt,value
2019-04-04T00:02:01.487Z,8.13
2019-04-04T00:04:33.869Z,8.11
2019-04-04T00:07:06.314Z,8.11
2019-04-04T00:09:38.692Z,8.11
2019-04-04T00:12:10.506Z,8.06
2019-04-04T00:14:43.905Z,8.06
2019-04-04T00:17:16.037Z,8.07
2019-04-04T00:19:48.714Z,8.04
2019-04-04T00:22:20.574Z,8.03
2019-04-04T00:24:52.376Z,8.01
2019-04-04T00:27:24.345Z,8.08
2019-04-04T00:29:56.154Z,8.01
2019-04-04T00:32:28.031Z,8.04
2019-04-04T00:35:00.493Z,8.07
2019-04-04T00:37:32.235Z,8.06
2019-04-04T00:40:04.285Z,8.06
2019-04-04T00:42:37.743Z,8.04
2019-04-04T00:45:09.422Z,8.00
2019-04-04T00:47:41.346Z,8.01
2019-04-04T00:50:12.946Z,7.99
2019-04-04T00:52:44.982Z,8.00
2019-04-04T00:55:18.519Z,7.98
2019-04-04T00:57:51.276Z,8.00
2019-04-04T01:00:24.059Z,7.95
2019-04-04T01:02:58.345Z,7.95
2019-04-04T01:05:32.047Z,7.92
2019-04-04T01:08:06.646Z,7.87
2019-04-04T01:10:39.040Z,7.83
2019-04-04T01:13:11.255Z,7.82
2019-04-04T01:15:43.182Z,7.77
2019-04-04T01:18:15.025Z,7.73
2019-04-04T01:20:50.445Z,7.69
2019-04-04T01:23:22.788Z,7.65
2019-04-04T01:25:54.391Z,7.59
2019-04-04T01:28:26.162Z,7.52
2019-04-04T01:30:58.152Z,7.37
2019-04-04T01:33:30.100Z,7.27
2019-04-04T01:36:01.954Z,7.22
2019-04-04T01:38:33.648Z,7.04
2019-04-04T01:41:06.157Z,7.04
2019-04-04T01:43:38.051Z,6.93
2019-04-04T01:46:13.013Z,6.91
2019-04-04T01:48:46.224Z,6.92
2019-04-04T01:51:18.306Z,6.88
2019-04-04T01:53:50.236Z,6.78
2019-04-04T01:56:21.918Z,6.71
2019-04-04T01:58:53.881Z,6.70
2019-04-04T02:01:25.647Z,6.69
2019-04-04T02:03:57.348Z,6.66
2019-04-04T02:06:29.218Z,6.69
2019-04-04T02:09:02.827Z,6.70
2019-04-04T02:11:37.317Z,6.68
2019-04-04T02:14:11.883Z,6.67
2019-04-04T02:16:50.974Z,6.69
2019-04-04T02:19:20.631Z,6.68
2019-04-04T02:21:53.491Z,6.72
2019-04-04T02:24:25.638Z,6.67
2019-04-04T02:26:57.262Z,6.65
2019-04-04T02:29:29.568Z,6.65
2019-04-04T02:32:04.833Z,6.65
2019-04-04T02:34:37.883Z,6.63
2019-04-04T02:37:10.470Z,6.64
2019-04-04T02:39:42.445Z,6.53
2019-04-04T02:42:15.471Z,6.52
2019-04-04T02:44:47.233Z,6.51
2019-04-04T02:47:18.877Z,6.40
2019-04-04T02:49:50.773Z,6.41
2019-04-04T02:52:22.836Z,6.45
2019-04-04T02:54:58.238Z,6.41
2019-04-04T02:57:28.767Z,6.39
2019-04-04T03:00:01.505Z,6.43
2019-04-04T03:02:36.062Z,6.48
2019-04-04T03:05:08.593Z,6.53
2019-04-04T03:07:42.059Z,6.56
2019-04-04T03:10:16.371Z,6.59
2019-04-04T03:12:48.168Z,6.58
2019-04-04T03:15:20.259Z,6.59
2019-04-04T03:17:52.107Z,6.57
2019-04-04T03:20:24.039Z,6.56
2019-04-04T03:23:00.173Z,6.56
2019-04-04T03:25:29.634Z,6.53
2019-04-04T03:28:01.252Z,6.47
2019-04-04T03:30:35.577Z,6.41
2019-04-04T03:33:07.399Z,6.41
2019-04-04T03:35:39.876Z,6.35
2019-04-04T03:38:13.318Z,6.33
2019-04-04T03:40:45.030Z,6.37
2019-04-04T03:43:17.109Z,6.36
2019-04-04T03:45:49.384Z,6.33
2019-04-04T03:48:21.208Z,6.27
2019-04-04T03:50:56.714Z,6.25
2019-04-04T03:53:26.818Z,6.28
2019-04-04T03:56:01.248Z,6.26
2019-04-04T03:58:31.892Z,6.28
2019-04-04T04:01:03.542Z,6.28
2019-04-04T04:03:36.273Z,6.25
2019-04-04T04:06:08.823Z,6.27
2019-04-04T04:08:41.648Z,6.22
2019-04-04T04:11:14.168Z,6.20
2019-04-04T04:13:48.966Z,6.14
2019-04-04T04:16:19.782Z,6.17
2019-04-04T04:18:53.956Z,6.15
2019-04-04T04:21:25.733Z,6.08
2019-04-04T04:23:58.072Z,6.05
2019-04-04T04:26:31.946Z,6.07
2019-04-04T04:29:03.922Z,6.07
2019-04-04T04:31:35.706Z,6.04
2019-04-04T04:34:07.639Z,6.04
2019-04-04T04:36:39.418Z,6.02
2019-04-04T04:39:11.142Z,6.02
2019-04-04T04:41:43.130Z,6.02
2019-04-04T04:44:15.451Z,6.10
2019-04-04T04:46:50.289Z,6.10
2019-04-04T04:49:23.413Z,6.08
2019-04-04T04:51:55.487Z,6.00
2019-04-04T04:54:28.729Z,6.02
2019-04-04T04:57:03.520Z,6.07
2019-04-04T04:59:34.303Z,6.12
2019-04-04T05:02:06.327Z,6.16
2019-04-04T05:04:38.482Z,6.10
2019-04-04T05:07:10.293Z,6.12
2019-04-04T05:09:45.027Z,6.12
2019-04-04T05:12:16.729Z,6.11
2019-04-04T05:14:49.684Z,6.13
2019-04-04T05:17:22.389Z,6.14
2019-04-04T05:19:54.051Z,6.20
2019-04-04T05:22:25.690Z,6.18
2019-04-04T05:25:08.015Z,6.22
2019-04-04T05:27:31.170Z,6.23
2019-04-04T05:30:03.465Z,6.25
2019-04-04T05:32:35.542Z,6.36
2019-04-04T05:35:07.626Z,6.41
2019-04-04T05:37:39.523Z,6.48
2019-04-04T05:40:11.637Z,6.49
2019-04-04T05:42:43.728Z,6.59
2019-04-04T05:45:16.008Z,6.65
2019-04-04T05:47:48.838Z,6.65
2019-04-04T05:50:21.149Z,6.65
2019-04-04T05:52:52.853Z,6.76
2019-04-04T05:55:24.597Z,6.78
2019-04-04T05:57:56.416Z,6.85
2019-04-04T06:00:28.333Z,6.97
2019-04-04T06:03:00.047Z,7.04
2019-04-04T06:05:32.038Z,7.12
2019-04-04T06:08:03.986Z,7.21
2019-04-04T06:10:35.578Z,7.35
2019-04-04T06:13:07.534Z,7.46
2019-04-04T06:15:40.478Z,7.58
2019-04-04T15:03:42.671Z,19.40
2019-04-04T15:06:14.387Z,19.36
2019-04-04T15:08:46.195Z,19.15
2019-04-04T15:11:24.184Z,18.99
2019-04-04T15:13:52.237Z,19.01
2019-04-04T15:16:24.257Z,18.86
2019-04-04T15:18:55.781Z,18.80
2019-04-04T15:21:27.428Z,18.91
2019-04-04T15:23:59.461Z,18.80
2019-04-04T15:26:31.022Z,18.85
2019-04-04T15:29:02.633Z,18.89
2019-04-04T15:31:34.689Z,18.85
2019-04-04T15:34:07.938Z,18.71
2019-04-04T15:36:39.663Z,18.60
2019-04-04T17:54:07.294Z,15.12
2019-04-04T17:56:39.300Z,14.93
2019-04-04T17:59:11.157Z,14.89
2019-04-04T18:01:43.658Z,14.87
2019-04-04T18:04:15.585Z,14.80
2019-04-04T18:06:47.627Z,14.80
2019-04-04T18:09:31.126Z,14.77
2019-04-04T18:11:53.072Z,14.79
2019-04-04T18:14:26.786Z,14.76
2019-04-04T18:16:59.701Z,14.75
2019-04-04T18:19:31.499Z,14.72
2019-04-04T18:22:03.690Z,14.68
2019-04-04T18:24:37.071Z,14.70
2019-04-04T18:27:08.709Z,14.64
2019-04-04T18:29:40.549Z,14.61
2019-04-04T18:32:12.445Z,14.56
2019-04-04T18:34:44.046Z,14.53
2019-04-04T18:37:15.622Z,14.45
2019-04-04T18:39:47.323Z,14.43
2019-04-04T18:42:18.987Z,14.41
2019-04-04T18:44:51.214Z,14.36
2019-04-04T18:47:24.483Z,14.31
2019-04-04T18:49:57.023Z,14.29
2019-04-04T18:52:28.604Z,14.26
2019-04-04T18:55:00.329Z,14.17
2019-04-04T18:57:32.102Z,14.18
2019-04-04T19:00:04.238Z,14.15
2019-04-04T19:02:37.493Z,14.10
2019-04-04T19:05:09.555Z,13.94
2019-04-04T19:07:41.382Z,13.94
2019-04-04T19:10:13.488Z,13.96
2019-04-04T19:12:45.108Z,13.90
2019-04-04T19:15:17.320Z,13.87
2019-04-04T19:17:48.973Z,13.83
2019-04-04T19:20:21.075Z,13.77
2019-04-04T19:22:53.143Z,13.68
2019-04-04T19:25:25.177Z,13.65
2019-04-04T19:27:57.989Z,13.59
2019-04-04T19:30:29.924Z,13.58
2019-04-04T19:33:01.574Z,13.54
2019-04-04T19:35:34.488Z,13.50
2019-04-04T19:38:06.828Z,13.46
2019-04-04T19:40:38.637Z,13.47
2019-04-04T19:43:17.949Z,13.41
2019-04-04T19:45:44.762Z,13.37
2019-04-04T19:48:16.375Z,13.36
2019-04-04T19:50:48.375Z,13.32
2019-04-04T19:53:20.283Z,13.31
2019-04-04T19:55:52.000Z,13.27
2019-04-04T19:58:23.956Z,13.24
2019-04-04T20:00:57.250Z,13.18
2019-04-04T20:03:29.352Z,13.17
2019-04-04T20:06:02.689Z,13.15
2019-04-04T20:08:34.543Z,13.14
2019-04-04T20:11:06.518Z,13.12
2019-04-04T20:13:38.414Z,13.11
2019-04-04T20:16:12.224Z,13.08
2019-04-04T20:18:44.005Z,13.03
2019-04-04T20:21:15.833Z,13.01
2019-04-04T20:23:47.757Z,12.98
2019-04-04T20:26:20.427Z,12.94
2019-04-04T20:28:54.247Z,12.87
2019-04-04T20:31:25.914Z,12.84
2019-04-04T20:34:01.928Z,12.80
2019-04-04T20:36:31.400Z,12.80
2019-04-04T20:39:04.615Z,12.77
2019-04-04T20:41:36.793Z,12.74
2019-04-04T20:44:09.513Z,12.71
2019-04-04T20:46:41.317Z,12.68
2019-04-04T20:49:13.501Z,12.68
2019-04-04T20:51:46.392Z,12.67
2019-04-04T20:54:18.402Z,12.61
2019-04-04T20:56:50.048Z,12.61
2019-04-04T20:59:22.449Z,12.61
2019-04-04T21:01:54.315Z,12.61
2019-04-04T21:04:25.992Z,12.56
2019-04-04T21:06:58.083Z,12.57
2019-04-04T21:09:29.980Z,12.53
2019-04-04T21:12:01.685Z,12.54
2019-04-04T21:14:34.508Z,12.48
2019-04-04T21:17:07.502Z,12.44
2019-04-04T21:19:39.311Z,12.43
2019-04-04T21:22:12.109Z,12.43
2019-04-04T21:24:43.839Z,12.41
2019-04-04T21:27:18.554Z,12.41
2019-04-04T21:29:49.062Z,12.40
2019-04-04T21:32:20.894Z,12.43
2019-04-04T21:34:52.422Z,12.43
2019-04-04T21:37:24.357Z,12.45
2019-04-04T21:39:55.906Z,12.46
2019-04-04T21:42:29.420Z,12.47
2019-04-04T21:45:02.084Z,12.48
2019-04-04T21:47:34.098Z,12.49
2019-04-04T21:50:06.439Z,12.52
2019-04-04T21:52:38.432Z,12.53
2019-04-04T21:55:10.090Z,12.55
2019-04-04T21:57:41.993Z,12.57
2019-04-04T22:00:15.158Z,12.58
2019-04-04T22:02:48.851Z,12.57
2019-04-04T22:05:21.104Z,12.58
2019-04-04T22:07:52.727Z,12.57
2019-04-04T22:10:24.516Z,12.56
2019-04-04T22:12:57.318Z,12.56
2019-04-04T22:15:29.322Z,12.54
2019-04-04T22:18:01.091Z,12.49
2019-04-04T22:20:33.207Z,12.47
2019-04-04T22:23:05.073Z,12.42
2019-04-04T22:25:36.711Z,12.39
2019-04-04T22:28:08.556Z,12.38
2019-04-04T22:30:40.472Z,12.31
2019-04-04T22:33:12.102Z,12.25
2019-04-04T22:35:44.172Z,12.24
2019-04-04T22:38:15.915Z,12.24
2019-04-04T22:40:48.013Z,12.24
2019-04-04T22:43:19.776Z,12.20
2019-04-04T22:45:51.514Z,12.12
2019-04-04T22:48:23.163Z,12.14
2019-04-04T22:50:55.002Z,12.10
2019-04-04T22:53:26.907Z,12.05
2019-04-04T22:55:59.348Z,12.06
2019-04-04T22:58:31.341Z,12.05
2019-04-04T23:01:04.195Z,11.97
2019-04-04T23:03:35.749Z,12.01
2019-04-04T23:06:07.333Z,12.02
2019-04-04T23:08:38.991Z,12.00
2019-04-04T23:11:10.986Z,12.00
2019-04-04T23:13:43.152Z,11.99
2019-04-04T23:16:14.664Z,11.95
2019-04-04T23:18:46.503Z,11.96
2019-04-04T23:21:18.143Z,11.96
2019-04-04T23:23:49.701Z,11.95
2019-04-04T23:26:21.385Z,11.91
2019-04-04T23:28:53.135Z,11.88
2019-04-04T23:31:24.862Z,11.86
2019-04-04T23:33:57.152Z,11.82
2019-04-04T23:36:34.775Z,11.82
2019-04-04T23:39:02.018Z,11.78
2019-04-04T23:41:35.851Z,11.77
2019-04-04T23:44:07.609Z,11.80
2019-04-04T23:46:39.231Z,11.77
2019-04-04T23:49:10.903Z,11.79
2019-04-04T23:51:42.806Z,11.78
2019-04-04T23:54:14.562Z,11.79
2019-04-04T23:56:46.336Z,11.80
2019-04-04T23:59:18.386Z,11.80
